Terminal Aerodrome Forecast
Issued by NWS Wakefield, VA

Home | Current Version | Previous Version | Text Only | Print | Product List | Glossary On
Versions: 1 2 3 4 5 6 7 8 9 10 11 12 13 14 15 16 17 18 19 20 21 22 23 24 25 26
492
FTUS41 KAKQ 310301 AAB
TAFRIC
TAF AMD
KRIC 310301Z 3103/3124 VRB03KT P6SM SCT006 BKN250
     FM310500 00000KT 4SM BR OVC007
     FM310900 00000KT 1SM BR OVC003
     FM311300 VRB03KT 4SM BR SCT003 BKN025
     FM311400 VRB05KT P6SM BKN040=

USA.gov is the U.S. government's official web portal to all federal, state and local government web resources and services.